sensor_id;sensor_type;location;lat;lon;timestamp;temperature;humidity
752;DHT22;360;48.764;9.164;2023-04-29T00:33:20;12.10;99.90
752;DHT22;360;48.764;9.164;2023-04-29T00:50:32;11.50;99.90
752;DHT22;360;48.764;9.164;2023-04-29T00:52:59;11.40;99.90
752;DHT22;360;48.764;9.164;2023-04-29T00:55:27;11.30;99.90
752;DHT22;360;48.764;9.164;2023-04-29T00:57:55;11.30;99.90
752;DHT22;360;48.764;9.164;2023-04-29T01:00:22;11.30;99.90
752;DHT22;360;48.764;9.164;2023-04-29T01:02:51;11.30;99.90
752;DHT22;360;48.764;9.164;2023-04-29T01:05:18;11.20;99.90
752;DHT22;360;48.764;9.164;2023-04-29T01:08:03;11.20;99.90
752;DHT22;360;48.764;9.164;2023-04-29T01:10:40;11.20;99.90
752;DHT22;360;48.764;9.164;2023-04-29T01:13:16;11.30;99.90
752;DHT22;360;48.764;9.164;2023-04-29T01:15:46;11.30;99.90
752;DHT22;360;48.764;9.164;2023-04-29T01:18:19;11.20;99.90
752;DHT22;360;48.764;9.164;2023-04-29T03:44:25;11.10;99.90
752;DHT22;360;48.764;9.164;2023-04-29T03:46:53;10.10;99.90
752;DHT22;360;48.764;9.164;2023-04-29T05:54:41;10.00;99.90
752;DHT22;360;48.764;9.164;2023-04-29T05:57:08;12.80;99.90
752;DHT22;360;48.764;9.164;2023-04-29T05:59:36;12.90;99.90
752;DHT22;360;48.764;9.164;2023-04-29T06:02:03;12.90;99.90
752;DHT22;360;48.764;9.164;2023-04-29T06:04:30;13.00;99.90
752;DHT22;360;48.764;9.164;2023-04-29T06:06:57;13.00;99.90
752;DHT22;360;48.764;9.164;2023-04-29T06:09:24;13.10;99.90
752;DHT22;360;48.764;9.164;2023-04-29T06:11:51;13.20;99.90
752;DHT22;360;48.764;9.164;2023-04-29T06:14:18;13.30;99.90
752;DHT22;360;48.764;9.164;2023-04-29T06:16:46;13.30;99.90
752;DHT22;360;48.764;9.164;2023-04-29T06:19:13;13.40;99.90
752;DHT22;360;48.764;9.164;2023-04-29T06:21:40;13.50;99.90
752;DHT22;360;48.764;9.164;2023-04-29T06:24:07;13.50;99.90
752;DHT22;360;48.764;9.164;2023-04-29T06:26:34;13.60;99.90
752;DHT22;360;48.764;9.164;2023-04-29T06:29:01;13.60;99.90
752;DHT22;360;48.764;9.164;2023-04-29T06:31:28;13.60;99.90
752;DHT22;360;48.764;9.164;2023-04-29T06:33:56;13.60;99.90
752;DHT22;360;48.764;9.164;2023-04-29T06:36:23;13.50;99.90
752;DHT22;360;48.764;9.164;2023-04-29T06:38:49;13.60;99.90
752;DHT22;360;48.764;9.164;2023-04-29T06:41:16;13.70;99.90
752;DHT22;360;48.764;9.164;2023-04-29T06:43:43;13.70;99.90
752;DHT22;360;48.764;9.164;2023-04-29T06:46:10;13.80;99.90
752;DHT22;360;48.764;9.164;2023-04-29T06:48:37;13.90;99.90
752;DHT22;360;48.764;9.164;2023-04-29T06:51:05;13.90;99.90
752;DHT22;360;48.764;9.164;2023-04-29T06:53:32;14.00;99.90
752;DHT22;360;48.764;9.164;2023-04-29T06:55:59;14.10;99.90
752;DHT22;360;48.764;9.164;2023-04-29T06:58:26;14.20;99.90
752;DHT22;360;48.764;9.164;2023-04-29T07:00:53;14.20;99.90
752;DHT22;360;48.764;9.164;2023-04-29T07:03:19;14.10;99.90
752;DHT22;360;48.764;9.164;2023-04-29T07:05:47;14.20;99.90
752;DHT22;360;48.764;9.164;2023-04-29T07:08:15;14.10;99.90
752;DHT22;360;48.764;9.164;2023-04-29T07:10:41;14.20;99.90
752;DHT22;360;48.764;9.164;2023-04-29T07:13:08;14.10;99.90
752;DHT22;360;48.764;9.164;2023-04-29T07:15:35;14.20;99.90
752;DHT22;360;48.764;9.164;2023-04-29T07:18:03;14.40;99.90
752;DHT22;360;48.764;9.164;2023-04-29T07:20:30;14.40;99.90
752;DHT22;360;48.764;9.164;2023-04-29T07:22:56;14.40;99.90
752;DHT22;360;48.764;9.164;2023-04-29T07:25:25;14.40;99.90
752;DHT22;360;48.764;9.164;2023-04-29T07:27:52;14.20;99.90
752;DHT22;360;48.764;9.164;2023-04-29T07:30:19;14.20;99.90
752;DHT22;360;48.764;9.164;2023-04-29T07:32:45;14.10;99.90
752;DHT22;360;48.764;9.164;2023-04-29T07:35:12;14.30;99.90
752;DHT22;360;48.764;9.164;2023-04-29T07:37:39;14.40;99.90
752;DHT22;360;48.764;9.164;2023-04-29T07:40:08;14.60;99.90
752;DHT22;360;48.764;9.164;2023-04-29T07:42:36;14.60;99.90
752;DHT22;360;48.764;9.164;2023-04-29T07:45:04;14.70;99.90
752;DHT22;360;48.764;9.164;2023-04-29T07:47:31;14.60;99.90
752;DHT22;360;48.764;9.164;2023-04-29T07:49:58;14.60;99.90
752;DHT22;360;48.764;9.164;2023-04-29T07:52:25;14.60;99.90
752;DHT22;360;48.764;9.164;2023-04-29T07:54:51;14.70;99.90
752;DHT22;360;48.764;9.164;2023-04-29T07:57:20;14.70;99.90
752;DHT22;360;48.764;9.164;2023-04-29T07:59:51;14.70;75.60
752;DHT22;360;48.764;9.164;2023-04-29T08:02:18;14.70;98.90
752;DHT22;360;48.764;9.164;2023-04-29T08:04:46;14.70;47.60
752;DHT22;360;48.764;9.164;2023-04-29T08:07:13;14.70;25.40
752;DHT22;360;48.764;9.164;2023-04-29T08:09:40;14.80;1.00
752;DHT22;360;48.764;9.164;2023-04-29T08:12:07;14.80;2.50
752;DHT22;360;48.764;9.164;2023-04-29T08:14:34;15.00;1.00
752;DHT22;360;48.764;9.164;2023-04-29T08:17:02;15.10;22.50
752;DHT22;360;48.764;9.164;2023-04-29T08:19:29;15.00;1.00
752;DHT22;360;48.764;9.164;2023-04-29T08:21:56;15.00;1.00
752;DHT22;360;48.764;9.164;2023-04-29T08:24:22;15.20;1.00
752;DHT22;360;48.764;9.164;2023-04-29T08:26:49;15.30;99.90
752;DHT22;360;48.764;9.164;2023-04-29T08:29:16;15.30;99.90
752;DHT22;360;48.764;9.164;2023-04-29T08:31:43;15.40;99.90
752;DHT22;360;48.764;9.164;2023-04-29T08:34:12;15.40;99.90
752;DHT22;360;48.764;9.164;2023-04-29T08:36:39;15.50;1.00
752;DHT22;360;48.764;9.164;2023-04-29T08:39:06;15.40;99.90
752;DHT22;360;48.764;9.164;2023-04-29T08:41:33;15.30;1.00
752;DHT22;360;48.764;9.164;2023-04-29T08:44:02;15.20;97.40
752;DHT22;360;48.764;9.164;2023-04-29T08:46:29;15.00;99.90
752;DHT22;360;48.764;9.164;2023-04-29T08:48:56;14.70;1.00
752;DHT22;360;48.764;9.164;2023-04-29T08:51:25;14.70;99.90
752;DHT22;360;48.764;9.164;2023-04-29T08:53:52;14.60;1.00
752;DHT22;360;48.764;9.164;2023-04-29T08:56:19;14.70;1.00
752;DHT22;360;48.764;9.164;2023-04-29T08:58:46;14.50;2.50
752;DHT22;360;48.764;9.164;2023-04-29T09:01:16;14.60;78.30
752;DHT22;360;48.764;9.164;2023-04-29T09:03:48;14.70;17.20
752;DHT22;360;48.764;9.164;2023-04-29T09:06:17;14.80;96.80
752;DHT22;360;48.764;9.164;2023-04-29T09:08:46;14.80;64.00
752;DHT22;360;48.764;9.164;2023-04-29T09:11:13;14.70;99.90
752;DHT22;360;48.764;9.164;2023-04-29T09:13:40;14.60;99.90
752;DHT22;360;48.764;9.164;2023-04-29T10:58:48;14.40;99.90
752;DHT22;360;48.764;9.164;2023-04-29T11:01:16;17.10;1.00
752;DHT22;360;48.764;9.164;2023-04-29T11:03:52;17.00;1.00
752;DHT22;360;48.764;9.164;2023-04-29T11:06:23;16.70;1.00
752;DHT22;360;48.764;9.164;2023-04-29T11:09:00;16.70;1.00
752;DHT22;360;48.764;9.164;2023-04-29T11:11:42;17.50;99.90
752;DHT22;360;48.764;9.164;2023-04-29T11:14:13;17.60;99.90
752;DHT22;360;48.764;9.164;2023-04-29T11:16:46;17.20;99.90
752;DHT22;360;48.764;9.164;2023-04-29T11:19:15;16.70;99.90
752;DHT22;360;48.764;9.164;2023-04-29T11:21:44;16.70;99.90
752;DHT22;360;48.764;9.164;2023-04-29T11:24:11;16.70;99.90
752;DHT22;360;48.764;9.164;2023-04-29T11:26:40;17.10;99.90
752;DHT22;360;48.764;9.164;2023-04-29T11:29:08;17.30;99.90
752;DHT22;360;48.764;9.164;2023-04-29T11:31:36;17.30;99.90
752;DHT22;360;48.764;9.164;2023-04-29T11:34:04;17.10;99.90
752;DHT22;360;48.764;9.164;2023-04-29T11:36:33;17.10;99.90
752;DHT22;360;48.764;9.164;2023-04-29T11:39:00;17.20;99.90
752;DHT22;360;48.764;9.164;2023-04-29T11:41:28;17.40;99.90
752;DHT22;360;48.764;9.164;2023-04-29T11:43:56;17.60;99.90
752;DHT22;360;48.764;9.164;2023-04-29T11:46:24;17.70;99.90
752;DHT22;360;48.764;9.164;2023-04-29T11:48:53;17.80;99.90
